createdAt,value
2024-03-15T14:10:31.008Z,92.391304
2024-03-15T14:15:30.892Z,93.000000
2024-03-15T14:20:30.841Z,93.000000
2024-03-15T14:25:30.734Z,93.000000
2024-03-15T14:30:30.886Z,93.000000
2024-03-15T14:35:30.884Z,93.000000
2024-03-15T14:40:30.809Z,93.000000
2024-03-15T14:45:18.876Z,93.000000
2024-03-15T14:50:19.049Z,93.000000
2024-03-15T14:55:19.861Z,93.000000
2024-03-15T15:00:18.877Z,93.000000
2024-03-15T15:05:18.820Z,93.000000
2024-03-15T15:10:18.787Z,93.050000
2024-03-15T15:15:31.241Z,93.111111
2024-03-15T15:20:18.781Z,93.941176
2024-03-15T15:25:30.740Z,94.000000
2024-03-15T15:30:30.863Z,94.000000
2024-03-15T15:35:18.796Z,94.000000
2024-03-15T15:40:20.076Z,94.086957
2024-03-15T15:45:19.217Z,94.680000
2024-03-15T15:50:31.049Z,94.900000
2024-03-15T15:55:30.794Z,95.000000
2024-03-15T16:00:18.955Z,95.000000
2024-03-15T16:05:19.306Z,95.000000
2024-03-15T16:10:19.249Z,95.000000
2024-03-15T16:15:18.846Z,95.000000
2024-03-15T16:20:18.787Z,94.761905
2024-03-15T16:25:19.062Z,94.000000
2024-03-15T16:30:19.052Z,94.250000
2024-03-15T16:35:18.760Z,94.454545
2024-03-15T16:40:18.810Z,95.000000
2024-03-15T16:45:18.837Z,95.000000
2024-03-15T16:50:20.730Z,95.000000
2024-03-15T16:55:18.898Z,95.000000
2024-03-15T17:00:18.972Z,95.000000
2024-03-15T17:05:18.731Z,95.000000
2024-03-15T17:10:18.991Z,95.000000
2024-03-15T17:15:45.452Z,95.000000
2024-03-15T17:20:18.813Z,95.000000
2024-03-15T17:25:30.933Z,95.000000
2024-03-15T17:30:18.889Z,95.000000
2024-03-15T17:35:18.877Z,95.000000
2024-03-15T17:40:18.737Z,95.000000
2024-03-15T17:45:18.801Z,95.000000
2024-03-15T17:50:18.812Z,95.000000
2024-03-15T17:55:18.875Z,95.000000
2024-03-15T18:00:19.009Z,95.000000
2024-03-15T18:05:18.884Z,94.952381
2024-03-15T18:10:18.774Z,95.000000
2024-03-15T18:15:30.902Z,94.700000
2024-03-15T18:20:19.132Z,91.352941
2024-03-15T18:25:18.821Z,89.909091
2024-03-15T18:30:18.980Z,90.000000
2024-03-15T18:35:19.099Z,89.631579
2024-03-15T18:40:18.835Z,89.000000
2024-03-15T18:45:18.906Z,89.400000
2024-03-15T18:50:18.864Z,89.045455
2024-03-15T18:55:18.949Z,89.761905
2024-03-15T19:00:20.548Z,89.857143
2024-03-15T19:05:19.118Z,89.750000
2024-03-15T19:10:42.861Z,89.000000
2024-03-15T19:15:18.845Z,89.523810
2024-03-15T19:20:18.825Z,90.000000
2024-03-15T19:25:18.846Z,89.900000
2024-03-15T19:30:19.228Z,89.428571
2024-03-15T19:35:18.908Z,89.000000
2024-03-15T19:40:18.898Z,88.952381
2024-03-15T19:45:30.992Z,88.181818
2024-03-15T19:50:18.806Z,87.050000
2024-03-15T19:55:18.838Z,87.363636
2024-03-15T20:00:18.929Z,88.000000
2024-03-15T20:05:19.077Z,88.181818
2024-03-15T20:10:18.900Z,88.000000
2024-03-15T20:15:19.106Z,88.047619
2024-03-15T20:20:18.968Z,88.000000
2024-03-15T20:25:18.803Z,88.000000
2024-03-15T20:30:18.871Z,88.000000
2024-03-15T20:35:18.901Z,88.000000
2024-03-15T20:40:18.956Z,88.000000
2024-03-15T20:45:18.819Z,87.722222
2024-03-15T20:50:18.873Z,87.523810
2024-03-15T20:55:18.872Z,87.238095
2024-03-15T21:00:19.124Z,87.666667
2024-03-15T21:05:18.959Z,87.000000
2024-03-15T21:10:18.956Z,87.000000
2024-03-15T21:15:32.092Z,87.000000
2024-03-15T21:20:18.820Z,87.000000
2024-03-15T21:25:19.048Z,86.521739
2024-03-15T21:30:18.816Z,86.000000
2024-03-15T21:35:18.879Z,86.000000
2024-03-15T21:40:30.893Z,85.818182
2024-03-15T21:45:18.908Z,86.000000
2024-03-15T21:50:18.795Z,86.333333
2024-03-15T21:55:19.831Z,85.521739
2024-03-15T22:00:18.843Z,84.411765
2024-03-15T22:05:19.064Z,84.000000
2024-03-15T22:10:18.899Z,84.000000
2024-03-15T22:15:18.905Z,83.727273
2024-03-15T22:20:18.889Z,83.650000
2024-03-15T22:25:26.421Z,84.000000
2024-03-15T22:30:19.005Z,84.000000
2024-03-15T22:35:19.120Z,84.000000
2024-03-15T22:40:18.897Z,84.636364
2024-03-15T22:45:19.003Z,86.047619
2024-03-15T22:50:30.868Z,86.000000
2024-03-15T22:55:18.786Z,86.954545
2024-03-15T23:00:18.875Z,87.791667
2024-03-15T23:05:20.805Z,88.526316
2024-03-15T23:10:18.864Z,89.000000
2024-03-15T23:15:18.929Z,89.791667
2024-03-15T23:20:18.992Z,90.190476
2024-03-15T23:25:55.050Z,90.000000
2024-03-15T23:30:30.986Z,90.000000
2024-03-15T23:35:18.885Z,90.000000
2024-03-15T23:40:19.099Z,91.000000
2024-03-15T23:45:31.269Z,90.000000
2024-03-15T23:50:18.981Z,88.150000
2024-03-15T23:55:18.973Z,87.478261
